Back to Top

Language: 

My Weather Underground Personal Weather Station Historical Data with Graphs...

Delerius Weather Station Historical Data
Daily Summary for January 23, 2017 Units:  Both    English   Metric
« Previous Day
Next Day »
Daily Weekly Monthly Yearly Custom
  High: Low: Average:
Temperature: 42.4 °F /  5.8 °C 26.0 °F /  -3.3 °C 33.9 °F /  1.1 °C
Dew Point: 38.6 °F /  3.7 °C 25.3 °F /  -3.7 °C 32.1 °F /  0.1 °C
Humidity: 98 % 83 % 94 %
Wind Speed: 0.0 mph /  0 km/h - 0 mph /  0 km/h
Wind Gust: -999.0 mph /  -1607.7 km/h - -
Wind:- - North
Pressure: 30.34 in /  1027.3 hPa 30.27 in /  1024.9 hPa -
Precipitation: 0.00 in /  0 mm    
Historical Graphs
 
 
Tabular Data for January 23, 2017
Time Temperature Dew Point Pressure Wind Wind Speed Wind Gust Humidity Rainfall Rate (Hourly) solar Conditions
00:01 33.6 °F /  0.9 °C 32.6 °F /  0.3 °C 30.32 in /  1026.6 hPa Calm   -999.0 mph /  -1607.7 km/h 96 % 0.00 in /  0 mm 0 W/m2
00:06 33.6 °F /  0.9 °C 32.6 °F /  0.3 °C 30.32 in /  1026.6 hPa Calm   -999.0 mph /  -1607.7 km/h 96 % 0.00 in /  0 mm 0 W/m2
00:11 33.6 °F /  0.9 °C 32.6 °F /  0.3 °C 30.32 in /  1026.6 hPa Calm   -999.0 mph /  -1607.7 km/h 96 % 0.00 in /  0 mm 0 W/m2
00:16 33.6 °F /  0.9 °C 32.6 °F /  0.3 °C 30.32 in /  1026.6 hPa Calm   -999.0 mph /  -1607.7 km/h 96 % 0.00 in /  0 mm 0 W/m2
00:21 33.6 °F /  0.9 °C 32.6 °F /  0.3 °C 30.32 in /  1026.6 hPa Calm   -999.0 mph /  -1607.7 km/h 96 % 0.00 in /  0 mm 0 W/m2
00:26 33.4 °F /  0.8 °C 32.4 °F /  0.2 °C 30.32 in /  1026.6 hPa Calm   -999.0 mph /  -1607.7 km/h 96 % 0.00 in /  0 mm 0 W/m2
00:31 33.4 °F /  0.8 °C 32.4 °F /  0.2 °C 30.32 in /  1026.6 hPa Calm   -999.0 mph /  -1607.7 km/h 96 % 0.00 in /  0 mm 0 W/m2
00:36 33.4 °F /  0.8 °C 32.4 °F /  0.2 °C 30.32 in /  1026.6 hPa Calm   -999.0 mph /  -1607.7 km/h 96 % 0.00 in /  0 mm 0 W/m2
00:41 33.0 °F /  0.6 °C 31.7 °F /  -0.2 °C 30.31 in /  1026.3 hPa Calm   -999.0 mph /  -1607.7 km/h 95 % 0.00 in /  0 mm 0 W/m2
00:46 33.0 °F /  0.6 °C 31.7 °F /  -0.2 °C 30.31 in /  1026.3 hPa Calm   -999.0 mph /  -1607.7 km/h 95 % 0.00 in /  0 mm 0 W/m2
00:51 33.0 °F /  0.6 °C 31.7 °F /  -0.2 °C 30.31 in /  1026.3 hPa Calm   -999.0 mph /  -1607.7 km/h 95 % 0.00 in /  0 mm 0 W/m2
00:56 32.5 °F /  0.3 °C 31.2 °F /  -0.4 °C 30.31 in /  1026.3 hPa Calm   -999.0 mph /  -1607.7 km/h 95 % 0.00 in /  0 mm 0 W/m2
01:01 32.5 °F /  0.3 °C 31.2 °F /  -0.4 °C 30.31 in /  1026.3 hPa Calm   -999.0 mph /  -1607.7 km/h 95 % 0.00 in /  0 mm 0 W/m2
01:06 32.5 °F /  0.3 °C 31.2 °F /  -0.4 °C 30.31 in /  1026.3 hPa Calm   -999.0 mph /  -1607.7 km/h 95 % 0.00 in /  0 mm 0 W/m2
01:11 31.8 °F /  -0.1 °C 30.5 °F /  -0.8 °C 30.31 in /  1026.3 hPa Calm   -999.0 mph /  -1607.7 km/h 95 % 0.00 in /  0 mm 0 W/m2
01:16 31.8 °F /  -0.1 °C 30.5 °F /  -0.8 °C 30.31 in /  1026.3 hPa Calm   -999.0 mph /  -1607.7 km/h 95 % 0.00 in /  0 mm 0 W/m2
01:21 31.8 °F /  -0.1 °C 30.5 °F /  -0.8 °C 30.31 in /  1026.3 hPa Calm   -999.0 mph /  -1607.7 km/h 95 % 0.00 in /  0 mm 0 W/m2
01:26 31.2 °F /  -0.4 °C 30.2 °F /  -1 °C 30.31 in /  1026.3 hPa Calm   -999.0 mph /  -1607.7 km/h 96 % 0.00 in /  0 mm 0 W/m2
01:31 31.2 °F /  -0.4 °C 30.2 °F /  -1 °C 30.31 in /  1026.3 hPa Calm   -999.0 mph /  -1607.7 km/h 96 % 0.00 in /  0 mm 0 W/m2
01:36 31.2 °F /  -0.4 °C 30.2 °F /  -1 °C 30.31 in /  1026.3 hPa Calm   -999.0 mph /  -1607.7 km/h 96 % 0.00 in /  0 mm 0 W/m2
01:41 30.8 °F /  -0.7 °C 29.8 °F /  -1.2 °C 30.31 in /  1026.3 hPa Calm   -999.0 mph /  -1607.7 km/h 96 % 0.00 in /  0 mm 0 W/m2
01:46 30.8 °F /  -0.7 °C 29.8 °F /  -1.2 °C 30.31 in /  1026.3 hPa Calm   -999.0 mph /  -1607.7 km/h 96 % 0.00 in /  0 mm 0 W/m2
01:51 30.8 °F /  -0.7 °C 29.8 °F /  -1.2 °C 30.31 in /  1026.3 hPa Calm   -999.0 mph /  -1607.7 km/h 96 % 0.00 in /  0 mm 0 W/m2
01:56 30.8 °F /  -0.7 °C 29.8 °F /  -1.2 °C 30.32 in /  1026.6 hPa Calm   -999.0 mph /  -1607.7 km/h 96 % 0.00 in /  0 mm 0 W/m2
02:01 30.8 °F /  -0.7 °C 29.8 °F /  -1.2 °C 30.32 in /  1026.6 hPa Calm   -999.0 mph /  -1607.7 km/h 96 % 0.00 in /  0 mm 0 W/m2
02:06 30.8 °F /  -0.7 °C 29.8 °F /  -1.2 °C 30.32 in /  1026.6 hPa Calm   -999.0 mph /  -1607.7 km/h 96 % 0.00 in /  0 mm 0 W/m2
02:11 30.8 °F /  -0.7 °C 29.8 °F /  -1.2 °C 30.31 in /  1026.3 hPa Calm   -999.0 mph /  -1607.7 km/h 96 % 0.00 in /  0 mm 0 W/m2
02:16 30.8 °F /  -0.7 °C 29.8 °F /  -1.2 °C 30.31 in /  1026.3 hPa Calm   -999.0 mph /  -1607.7 km/h 96 % 0.00 in /  0 mm 0 W/m2
02:21 30.8 °F /  -0.7 °C 29.8 °F /  -1.2 °C 30.31 in /  1026.3 hPa Calm   -999.0 mph /  -1607.7 km/h 96 % 0.00 in /  0 mm 0 W/m2
02:26 30.4 °F /  -0.9 °C 29.4 °F /  -1.4 °C 30.31 in /  1026.3 hPa Calm   -999.0 mph /  -1607.7 km/h 96 % 0.00 in /  0 mm 0 W/m2
02:31 30.4 °F /  -0.9 °C 29.4 °F /  -1.4 °C 30.31 in /  1026.3 hPa Calm   -999.0 mph /  -1607.7 km/h 96 % 0.00 in /  0 mm 0 W/m2
02:36 30.4 °F /  -0.9 °C 29.4 °F /  -1.4 °C 30.31 in /  1026.3 hPa Calm   -999.0 mph /  -1607.7 km/h 96 % 0.00 in /  0 mm 0 W/m2
02:41 30.1 °F /  -1.1 °C 29.1 °F /  -1.6 °C 30.31 in /  1026.3 hPa Calm   -999.0 mph /  -1607.7 km/h 96 % 0.00 in /  0 mm 0 W/m2
02:46 30.1 °F /  -1.1 °C 29.1 °F /  -1.6 °C 30.31 in /  1026.3 hPa Calm   -999.0 mph /  -1607.7 km/h 96 % 0.00 in /  0 mm 0 W/m2
02:51 30.1 °F /  -1.1 °C 29.1 °F /  -1.6 °C 30.31 in /  1026.3 hPa Calm   -999.0 mph /  -1607.7 km/h 96 % 0.00 in /  0 mm 0 W/m2
02:56 29.7 °F /  -1.3 °C 28.7 °F /  -1.8 °C 30.31 in /  1026.3 hPa Calm   -999.0 mph /  -1607.7 km/h 96 % 0.00 in /  0 mm 0 W/m2
03:01 29.7 °F /  -1.3 °C 28.7 °F /  -1.8 °C 30.31 in /  1026.3 hPa Calm   -999.0 mph /  -1607.7 km/h 96 % 0.00 in /  0 mm 0 W/m2
03:06 29.7 °F /  -1.3 °C 28.7 °F /  -1.8 °C 30.31 in /  1026.3 hPa Calm   -999.0 mph /  -1607.7 km/h 96 % 0.00 in /  0 mm 0 W/m2
03:11 30.0 °F /  -1.1 °C 29.3 °F /  -1.5 °C 30.31 in /  1026.3 hPa Calm   -999.0 mph /  -1607.7 km/h 97 % 0.00 in /  0 mm 0 W/m2
03:16 30.0 °F /  -1.1 °C 29.3 °F /  -1.5 °C 30.31 in /  1026.3 hPa Calm   -999.0 mph /  -1607.7 km/h 97 % 0.00 in /  0 mm 0 W/m2
03:21 30.0 °F /  -1.1 °C 29.3 °F /  -1.5 °C 30.31 in /  1026.3 hPa Calm   -999.0 mph /  -1607.7 km/h 97 % 0.00 in /  0 mm 0 W/m2
03:26 30.3 °F /  -0.9 °C 29.3 °F /  -1.5 °C 30.31 in /  1026.3 hPa Calm   -999.0 mph /  -1607.7 km/h 96 % 0.00 in /  0 mm 0 W/m2
03:31 30.3 °F /  -0.9 °C 29.3 °F /  -1.5 °C 30.31 in /  1026.3 hPa Calm   -999.0 mph /  -1607.7 km/h 96 % 0.00 in /  0 mm 0 W/m2
03:36 30.3 °F /  -0.9 °C 29.3 °F /  -1.5 °C 30.31 in /  1026.3 hPa Calm   -999.0 mph /  -1607.7 km/h 96 % 0.00 in /  0 mm 0 W/m2
03:41 29.8 °F /  -1.2 °C 28.8 °F /  -1.8 °C 30.31 in /  1026.3 hPa Calm   -999.0 mph /  -1607.7 km/h 96 % 0.00 in /  0 mm 0 W/m2
03:46 29.8 °F /  -1.2 °C 28.8 °F /  -1.8 °C 30.31 in /  1026.3 hPa Calm   -999.0 mph /  -1607.7 km/h 96 % 0.00 in /  0 mm 0 W/m2
03:51 29.8 °F /  -1.2 °C 28.8 °F /  -1.8 °C 30.31 in /  1026.3 hPa Calm   -999.0 mph /  -1607.7 km/h 96 % 0.00 in /  0 mm 0 W/m2
03:56 29.2 °F /  -1.6 °C 28.2 °F /  -2.1 °C 30.31 in /  1026.3 hPa Calm   -999.0 mph /  -1607.7 km/h 96 % 0.00 in /  0 mm 0 W/m2
04:01 29.2 °F /  -1.6 °C 28.2 °F /  -2.1 °C 30.31 in /  1026.3 hPa Calm   -999.0 mph /  -1607.7 km/h 96 % 0.00 in /  0 mm 0 W/m2
04:06 29.2 °F /  -1.6 °C 28.2 °F /  -2.1 °C 30.31 in /  1026.3 hPa Calm   -999.0 mph /  -1607.7 km/h 96 % 0.00 in /  0 mm 0 W/m2
04:11 29.1 °F /  -1.6 °C 28.1 °F /  -2.2 °C 30.31 in /  1026.3 hPa Calm   -999.0 mph /  -1607.7 km/h 96 % 0.00 in /  0 mm 0 W/m2
04:16 29.1 °F /  -1.6 °C 28.1 °F /  -2.2 °C 30.31 in /  1026.3 hPa Calm   -999.0 mph /  -1607.7 km/h 96 % 0.00 in /  0 mm 0 W/m2
04:21 29.1 °F /  -1.6 °C 28.1 °F /  -2.2 °C 30.31 in /  1026.3 hPa Calm   -999.0 mph /  -1607.7 km/h 96 % 0.00 in /  0 mm 0 W/m2
04:26 28.8 °F /  -1.8 °C 27.8 °F /  -2.3 °C 30.31 in /  1026.3 hPa Calm   -999.0 mph /  -1607.7 km/h 96 % 0.00 in /  0 mm 0 W/m2
04:31 28.8 °F /  -1.8 °C 27.8 °F /  -2.3 °C 30.31 in /  1026.3 hPa Calm   -999.0 mph /  -1607.7 km/h 96 % 0.00 in /  0 mm 0 W/m2
04:36 28.8 °F /  -1.8 °C 27.8 °F /  -2.3 °C 30.31 in /  1026.3 hPa Calm   -999.0 mph /  -1607.7 km/h 96 % 0.00 in /  0 mm 0 W/m2
04:41 28.3 °F /  -2.1 °C 27.3 °F /  -2.6 °C 30.32 in /  1026.6 hPa Calm   -999.0 mph /  -1607.7 km/h 96 % 0.00 in /  0 mm 0 W/m2
04:46 28.3 °F /  -2.1 °C 27.3 °F /  -2.6 °C 30.32 in /  1026.6 hPa Calm   -999.0 mph /  -1607.7 km/h 96 % 0.00 in /  0 mm 0 W/m2
04:51 28.3 °F /  -2.1 °C 27.3 °F /  -2.6 °C 30.32 in /  1026.6 hPa Calm   -999.0 mph /  -1607.7 km/h 96 % 0.00 in /  0 mm 0 W/m2
04:56 27.9 °F /  -2.3 °C 26.9 °F /  -2.8 °C 30.32 in /  1026.6 hPa Calm   -999.0 mph /  -1607.7 km/h 96 % 0.00 in /  0 mm 0 W/m2
05:01 27.9 °F /  -2.3 °C 26.9 °F /  -2.8 °C 30.32 in /  1026.6 hPa Calm   -999.0 mph /  -1607.7 km/h 96 % 0.00 in /  0 mm 0 W/m2
05:06 27.9 °F /  -2.3 °C 26.9 °F /  -2.8 °C 30.32 in /  1026.6 hPa Calm   -999.0 mph /  -1607.7 km/h 96 % 0.00 in /  0 mm 0 W/m2
05:11 27.6 °F /  -2.4 °C 26.6 °F /  -3 °C 30.32 in /  1026.6 hPa Calm   -999.0 mph /  -1607.7 km/h 96 % 0.00 in /  0 mm 0 W/m2
05:16 27.6 °F /  -2.4 °C 26.6 °F /  -3 °C 30.32 in /  1026.6 hPa Calm   -999.0 mph /  -1607.7 km/h 96 % 0.00 in /  0 mm 0 W/m2
05:21 27.6 °F /  -2.4 °C 26.6 °F /  -3 °C 30.32 in /  1026.6 hPa Calm   -999.0 mph /  -1607.7 km/h 96 % 0.00 in /  0 mm 0 W/m2
05:26 27.5 °F /  -2.5 °C 26.5 °F /  -3.1 °C 30.31 in /  1026.3 hPa Calm   -999.0 mph /  -1607.7 km/h 96 % 0.00 in /  0 mm 0 W/m2
05:31 27.5 °F /  -2.5 °C 26.5 °F /  -3.1 °C 30.31 in /  1026.3 hPa Calm   -999.0 mph /  -1607.7 km/h 96 % 0.00 in /  0 mm 0 W/m2
05:36 27.5 °F /  -2.5 °C 26.5 °F /  -3.1 °C 30.31 in /  1026.3 hPa Calm   -999.0 mph /  -1607.7 km/h 96 % 0.00 in /  0 mm 0 W/m2
05:41 27.3 °F /  -2.6 °C 26.3 °F /  -3.2 °C 30.31 in /  1026.3 hPa Calm   -999.0 mph /  -1607.7 km/h 96 % 0.00 in /  0 mm 0 W/m2
05:46 27.3 °F /  -2.6 °C 26.3 °F /  -3.2 °C 30.31 in /  1026.3 hPa Calm   -999.0 mph /  -1607.7 km/h 96 % 0.00 in /  0 mm 0 W/m2
05:51 27.3 °F /  -2.6 °C 26.3 °F /  -3.2 °C 30.31 in /  1026.3 hPa Calm   -999.0 mph /  -1607.7 km/h 96 % 0.00 in /  0 mm 0 W/m2
05:56 27.0 °F /  -2.8 °C 26.0 °F /  -3.3 °C 30.31 in /  1026.3 hPa Calm   -999.0 mph /  -1607.7 km/h 96 % 0.00 in /  0 mm 0 W/m2
06:01 27.0 °F /  -2.8 °C 26.0 °F /  -3.3 °C 30.31 in /  1026.3 hPa Calm   -999.0 mph /  -1607.7 km/h 96 % 0.00 in /  0 mm 0 W/m2
06:06 27.0 °F /  -2.8 °C 26.0 °F /  -3.3 °C 30.31 in /  1026.3 hPa Calm   -999.0 mph /  -1607.7 km/h 96 % 0.00 in /  0 mm 0 W/m2
06:11 26.7 °F /  -2.9 °C 25.7 °F /  -3.5 °C 30.31 in /  1026.3 hPa Calm   -999.0 mph /  -1607.7 km/h 96 % 0.00 in /  0 mm 0 W/m2
06:16 26.7 °F /  -2.9 °C 25.7 °F /  -3.5 °C 30.31 in /  1026.3 hPa Calm   -999.0 mph /  -1607.7 km/h 96 % 0.00 in /  0 mm 0 W/m2
06:21 26.7 °F /  -2.9 °C 25.7 °F /  -3.5 °C 30.31 in /  1026.3 hPa Calm   -999.0 mph /  -1607.7 km/h 96 % 0.00 in /  0 mm 0 W/m2
06:26 26.4 °F /  -3.1 °C 25.4 °F /  -3.7 °C 30.31 in /  1026.3 hPa Calm   -999.0 mph /  -1607.7 km/h 96 % 0.00 in /  0 mm 0 W/m2
06:31 26.4 °F /  -3.1 °C 25.4 °F /  -3.7 °C 30.31 in /  1026.3 hPa Calm   -999.0 mph /  -1607.7 km/h 96 % 0.00 in /  0 mm 0 W/m2
06:36 26.4 °F /  -3.1 °C 25.4 °F /  -3.7 °C 30.31 in /  1026.3 hPa Calm   -999.0 mph /  -1607.7 km/h 96 % 0.00 in /  0 mm 0 W/m2
06:41 26.2 °F /  -3.2 °C 25.5 °F /  -3.6 °C 30.31 in /  1026.3 hPa Calm   -999.0 mph /  -1607.7 km/h 97 % 0.00 in /  0 mm 0 W/m2
06:46 26.2 °F /  -3.2 °C 25.5 °F /  -3.6 °C 30.31 in /  1026.3 hPa Calm   -999.0 mph /  -1607.7 km/h 97 % 0.00 in /  0 mm 0 W/m2
06:51 26.2 °F /  -3.2 °C 25.5 °F /  -3.6 °C 30.31 in /  1026.3 hPa Calm   -999.0 mph /  -1607.7 km/h 97 % 0.00 in /  0 mm 0 W/m2
06:56 26.2 °F /  -3.2 °C 25.5 °F /  -3.6 °C 30.31 in /  1026.3 hPa Calm   -999.0 mph /  -1607.7 km/h 97 % 0.00 in /  0 mm 0 W/m2
07:01 26.2 °F /  -3.2 °C 25.5 °F /  -3.6 °C 30.31 in /  1026.3 hPa Calm   -999.0 mph /  -1607.7 km/h 97 % 0.00 in /  0 mm 0 W/m2
07:06 26.2 °F /  -3.2 °C 25.5 °F /  -3.6 °C 30.31 in /  1026.3 hPa Calm   -999.0 mph /  -1607.7 km/h 97 % 0.00 in /  0 mm 0 W/m2
07:11 26.4 °F /  -3.1 °C 25.7 °F /  -3.5 °C 30.31 in /  1026.3 hPa Calm   -999.0 mph /  -1607.7 km/h 97 % 0.00 in /  0 mm 0 W/m2
07:16 26.4 °F /  -3.1 °C 25.7 °F /  -3.5 °C 30.31 in /  1026.3 hPa Calm   -999.0 mph /  -1607.7 km/h 97 % 0.00 in /  0 mm 0 W/m2
07:21 26.4 °F /  -3.1 °C 25.7 °F /  -3.5 °C 30.31 in /  1026.3 hPa Calm   -999.0 mph /  -1607.7 km/h 97 % 0.00 in /  0 mm 0 W/m2
07:26 26.6 °F /  -3 °C 25.9 °F /  -3.4 °C 30.32 in /  1026.6 hPa Calm   -999.0 mph /  -1607.7 km/h 97 % 0.00 in /  0 mm 0 W/m2
07:31 26.6 °F /  -3 °C 25.9 °F /  -3.4 °C 30.32 in /  1026.6 hPa Calm   -999.0 mph /  -1607.7 km/h 97 % 0.00 in /  0 mm 0 W/m2
07:36 26.6 °F /  -3 °C 25.9 °F /  -3.4 °C 30.32 in /  1026.6 hPa Calm   -999.0 mph /  -1607.7 km/h 97 % 0.00 in /  0 mm 0 W/m2
07:41 26.3 °F /  -3.2 °C 25.6 °F /  -3.6 °C 30.32 in /  1026.6 hPa Calm   -999.0 mph /  -1607.7 km/h 97 % 0.00 in /  0 mm 0 W/m2
07:46 26.3 °F /  -3.2 °C 25.6 °F /  -3.6 °C 30.32 in /  1026.6 hPa Calm   -999.0 mph /  -1607.7 km/h 97 % 0.00 in /  0 mm 0 W/m2
07:51 26.3 °F /  -3.2 °C 25.6 °F /  -3.6 °C 30.32 in /  1026.6 hPa Calm   -999.0 mph /  -1607.7 km/h 97 % 0.00 in /  0 mm 0 W/m2
07:56 26.1 °F /  -3.3 °C 25.4 °F /  -3.7 °C 30.32 in /  1026.6 hPa Calm   -999.0 mph /  -1607.7 km/h 97 % 0.00 in /  0 mm 0 W/m2
08:01 26.1 °F /  -3.3 °C 25.4 °F /  -3.7 °C 30.32 in /  1026.6 hPa Calm   -999.0 mph /  -1607.7 km/h 97 % 0.00 in /  0 mm 0 W/m2
08:06 26.1 °F /  -3.3 °C 25.4 °F /  -3.7 °C 30.32 in /  1026.6 hPa Calm   -999.0 mph /  -1607.7 km/h 97 % 0.00 in /  0 mm 0 W/m2
08:11 26.0 °F /  -3.3 °C 25.3 °F /  -3.7 °C 30.33 in /  1027 hPa Calm   -999.0 mph /  -1607.7 km/h 97 % 0.00 in /  0 mm 5 W/m2
08:16 26.0 °F /  -3.3 °C 25.3 °F /  -3.7 °C 30.33 in /  1027 hPa Calm   -999.0 mph /  -1607.7 km/h 97 % 0.00 in /  0 mm 5 W/m2
08:21 26.0 °F /  -3.3 °C 25.3 °F /  -3.7 °C 30.33 in /  1027 hPa Calm   -999.0 mph /  -1607.7 km/h 97 % 0.00 in /  0 mm 5 W/m2
08:26 26.2 °F /  -3.2 °C 25.5 °F /  -3.6 °C 30.33 in /  1027 hPa Calm   -999.0 mph /  -1607.7 km/h 97 % 0.00 in /  0 mm 13 W/m2
08:31 26.2 °F /  -3.2 °C 25.5 °F /  -3.6 °C 30.33 in /  1027 hPa Calm   -999.0 mph /  -1607.7 km/h 97 % 0.00 in /  0 mm 13 W/m2
08:36 26.2 °F /  -3.2 °C 25.5 °F /  -3.6 °C 30.33 in /  1027 hPa Calm   -999.0 mph /  -1607.7 km/h 97 % 0.00 in /  0 mm 13 W/m2
08:41 26.7 °F /  -2.9 °C 26.0 °F /  -3.3 °C 30.34 in /  1027.3 hPa Calm   -999.0 mph /  -1607.7 km/h 97 % 0.00 in /  0 mm 15 W/m2
08:46 26.7 °F /  -2.9 °C 26.0 °F /  -3.3 °C 30.34 in /  1027.3 hPa Calm   -999.0 mph /  -1607.7 km/h 97 % 0.00 in /  0 mm 15 W/m2
08:51 26.7 °F /  -2.9 °C 26.0 °F /  -3.3 °C 30.34 in /  1027.3 hPa Calm   -999.0 mph /  -1607.7 km/h 97 % 0.00 in /  0 mm 15 W/m2
08:56 27.4 °F /  -2.6 °C 26.9 °F /  -2.8 °C 30.34 in /  1027.3 hPa Calm   -999.0 mph /  -1607.7 km/h 98 % 0.00 in /  0 mm 38 W/m2
09:01 27.4 °F /  -2.6 °C 26.9 °F /  -2.8 °C 30.34 in /  1027.3 hPa Calm   -999.0 mph /  -1607.7 km/h 98 % 0.00 in /  0 mm 38 W/m2
09:06 27.4 °F /  -2.6 °C 26.9 °F /  -2.8 °C 30.34 in /  1027.3 hPa Calm   -999.0 mph /  -1607.7 km/h 98 % 0.00 in /  0 mm 38 W/m2
09:11 28.3 °F /  -2.1 °C 27.8 °F /  -2.3 °C 30.34 in /  1027.3 hPa Calm   -999.0 mph /  -1607.7 km/h 98 % 0.00 in /  0 mm 32 W/m2
09:16 28.3 °F /  -2.1 °C 27.8 °F /  -2.3 °C 30.34 in /  1027.3 hPa Calm   -999.0 mph /  -1607.7 km/h 98 % 0.00 in /  0 mm 32 W/m2
09:21 28.3 °F /  -2.1 °C 27.8 °F /  -2.3 °C 30.34 in /  1027.3 hPa Calm   -999.0 mph /  -1607.7 km/h 98 % 0.00 in /  0 mm 32 W/m2
09:26 29.1 °F /  -1.6 °C 28.6 °F /  -1.9 °C 30.34 in /  1027.3 hPa Calm   -999.0 mph /  -1607.7 km/h 98 % 0.00 in /  0 mm 55 W/m2
09:31 29.1 °F /  -1.6 °C 28.6 °F /  -1.9 °C 30.34 in /  1027.3 hPa Calm   -999.0 mph /  -1607.7 km/h 98 % 0.00 in /  0 mm 55 W/m2
09:36 29.1 °F /  -1.6 °C 28.6 °F /  -1.9 °C 30.34 in /  1027.3 hPa Calm   -999.0 mph /  -1607.7 km/h 98 % 0.00 in /  0 mm 55 W/m2
09:41 29.5 °F /  -1.4 °C 28.8 °F /  -1.8 °C 30.34 in /  1027.3 hPa Calm   -999.0 mph /  -1607.7 km/h 97 % 0.00 in /  0 mm 38 W/m2
09:46 29.5 °F /  -1.4 °C 28.8 °F /  -1.8 °C 30.34 in /  1027.3 hPa Calm   -999.0 mph /  -1607.7 km/h 97 % 0.00 in /  0 mm 38 W/m2
09:51 29.5 °F /  -1.4 °C 28.8 °F /  -1.8 °C 30.34 in /  1027.3 hPa Calm   -999.0 mph /  -1607.7 km/h 97 % 0.00 in /  0 mm 38 W/m2
09:56 30.4 °F /  -0.9 °C 29.9 °F /  -1.2 °C 30.34 in /  1027.3 hPa Calm   -999.0 mph /  -1607.7 km/h 98 % 0.00 in /  0 mm 149 W/m2
10:01 30.4 °F /  -0.9 °C 29.9 °F /  -1.2 °C 30.34 in /  1027.3 hPa Calm   -999.0 mph /  -1607.7 km/h 98 % 0.00 in /  0 mm 149 W/m2
10:06 30.4 °F /  -0.9 °C 29.9 °F /  -1.2 °C 30.34 in /  1027.3 hPa Calm   -999.0 mph /  -1607.7 km/h 98 % 0.00 in /  0 mm 149 W/m2
10:11 32.0 °F /  0 °C 31.5 °F /  -0.3 °C 30.34 in /  1027.3 hPa Calm   -999.0 mph /  -1607.7 km/h 98 % 0.00 in /  0 mm 217 W/m2
10:16 32.0 °F /  0 °C 31.5 °F /  -0.3 °C 30.34 in /  1027.3 hPa Calm   -999.0 mph /  -1607.7 km/h 98 % 0.00 in /  0 mm 217 W/m2
10:21 32.0 °F /  0 °C 31.5 °F /  -0.3 °C 30.34 in /  1027.3 hPa Calm   -999.0 mph /  -1607.7 km/h 98 % 0.00 in /  0 mm 217 W/m2
10:26 33.4 °F /  0.8 °C 32.9 °F /  0.5 °C 30.34 in /  1027.3 hPa Calm   -999.0 mph /  -1607.7 km/h 98 % 0.00 in /  0 mm 236 W/m2
10:31 33.4 °F /  0.8 °C 32.9 °F /  0.5 °C 30.34 in /  1027.3 hPa Calm   -999.0 mph /  -1607.7 km/h 98 % 0.00 in /  0 mm 236 W/m2
10:36 33.4 °F /  0.8 °C 32.9 °F /  0.5 °C 30.34 in /  1027.3 hPa Calm   -999.0 mph /  -1607.7 km/h 98 % 0.00 in /  0 mm 236 W/m2
10:41 34.7 °F /  1.5 °C 34.2 °F /  1.2 °C 30.34 in /  1027.3 hPa Calm   -999.0 mph /  -1607.7 km/h 98 % 0.00 in /  0 mm 254 W/m2
10:46 34.7 °F /  1.5 °C 34.2 °F /  1.2 °C 30.34 in /  1027.3 hPa Calm   -999.0 mph /  -1607.7 km/h 98 % 0.00 in /  0 mm 254 W/m2
10:51 34.7 °F /  1.5 °C 34.2 °F /  1.2 °C 30.34 in /  1027.3 hPa Calm   -999.0 mph /  -1607.7 km/h 98 % 0.00 in /  0 mm 254 W/m2
10:56 35.6 °F /  2 °C 34.8 °F /  1.6 °C 30.34 in /  1027.3 hPa Calm   -999.0 mph /  -1607.7 km/h 97 % 0.00 in /  0 mm 267 W/m2
11:01 35.6 °F /  2 °C 34.8 °F /  1.6 °C 30.34 in /  1027.3 hPa Calm   -999.0 mph /  -1607.7 km/h 97 % 0.00 in /  0 mm 267 W/m2
11:06 35.6 °F /  2 °C 34.8 °F /  1.6 °C 30.34 in /  1027.3 hPa Calm   -999.0 mph /  -1607.7 km/h 97 % 0.00 in /  0 mm 267 W/m2
11:11 37.0 °F /  2.8 °C 36.2 °F /  2.3 °C 30.33 in /  1027 hPa Calm   -999.0 mph /  -1607.7 km/h 97 % 0.00 in /  0 mm 282 W/m2
11:16 37.0 °F /  2.8 °C 36.2 °F /  2.3 °C 30.33 in /  1027 hPa Calm   -999.0 mph /  -1607.7 km/h 97 % 0.00 in /  0 mm 282 W/m2
11:21 37.0 °F /  2.8 °C 36.2 °F /  2.3 °C 30.33 in /  1027 hPa Calm   -999.0 mph /  -1607.7 km/h 97 % 0.00 in /  0 mm 282 W/m2
11:26 38.7 °F /  3.7 °C 37.1 °F /  2.8 °C 30.33 in /  1027 hPa Calm   -999.0 mph /  -1607.7 km/h 94 % 0.00 in /  0 mm 294 W/m2
11:31 38.7 °F /  3.7 °C 37.1 °F /  2.8 °C 30.33 in /  1027 hPa Calm   -999.0 mph /  -1607.7 km/h 94 % 0.00 in /  0 mm 294 W/m2
11:36 38.7 °F /  3.7 °C 37.1 °F /  2.8 °C 30.33 in /  1027 hPa Calm   -999.0 mph /  -1607.7 km/h 94 % 0.00 in /  0 mm 294 W/m2
11:41 40.6 °F /  4.8 °C 37.3 °F /  2.9 °C 30.33 in /  1027 hPa Calm   -999.0 mph /  -1607.7 km/h 88 % 0.00 in /  0 mm 275 W/m2
11:46 40.6 °F /  4.8 °C 37.3 °F /  2.9 °C 30.33 in /  1027 hPa Calm   -999.0 mph /  -1607.7 km/h 88 % 0.00 in /  0 mm 275 W/m2
11:51 40.6 °F /  4.8 °C 37.3 °F /  2.9 °C 30.33 in /  1027 hPa Calm   -999.0 mph /  -1607.7 km/h 88 % 0.00 in /  0 mm 275 W/m2
11:56 41.2 °F /  5.1 °C 37.0 °F /  2.8 °C 30.33 in /  1027 hPa Calm   -999.0 mph /  -1607.7 km/h 85 % 0.00 in /  0 mm 112 W/m2
12:01 41.2 °F /  5.1 °C 37.0 °F /  2.8 °C 30.33 in /  1027 hPa Calm   -999.0 mph /  -1607.7 km/h 85 % 0.00 in /  0 mm 112 W/m2
12:06 41.2 °F /  5.1 °C 37.0 °F /  2.8 °C 30.33 in /  1027 hPa Calm   -999.0 mph /  -1607.7 km/h 85 % 0.00 in /  0 mm 112 W/m2
12:11 41.2 °F /  5.1 °C 37.3 °F /  2.9 °C 30.32 in /  1026.6 hPa Calm   -999.0 mph /  -1607.7 km/h 86 % 0.00 in /  0 mm 101 W/m2
12:16 41.2 °F /  5.1 °C 37.3 °F /  2.9 °C 30.32 in /  1026.6 hPa Calm   -999.0 mph /  -1607.7 km/h 86 % 0.00 in /  0 mm 101 W/m2
12:21 41.2 °F /  5.1 °C 37.3 °F /  2.9 °C 30.32 in /  1026.6 hPa Calm   -999.0 mph /  -1607.7 km/h 86 % 0.00 in /  0 mm 101 W/m2
12:26 41.0 °F /  5 °C 37.1 °F /  2.8 °C 30.32 in /  1026.6 hPa Calm   -999.0 mph /  -1607.7 km/h 86 % 0.00 in /  0 mm 108 W/m2
12:31 41.0 °F /  5 °C 37.1 °F /  2.8 °C 30.32 in /  1026.6 hPa Calm   -999.0 mph /  -1607.7 km/h 86 % 0.00 in /  0 mm 108 W/m2
12:36 41.0 °F /  5 °C 37.1 °F /  2.8 °C 30.32 in /  1026.6 hPa Calm   -999.0 mph /  -1607.7 km/h 86 % 0.00 in /  0 mm 108 W/m2
12:41 40.7 °F /  4.8 °C 37.4 °F /  3 °C 30.32 in /  1026.6 hPa Calm   -999.0 mph /  -1607.7 km/h 88 % 0.00 in /  0 mm 119 W/m2
12:46 40.7 °F /  4.8 °C 37.4 °F /  3 °C 30.32 in /  1026.6 hPa Calm   -999.0 mph /  -1607.7 km/h 88 % 0.00 in /  0 mm 119 W/m2
12:51 40.7 °F /  4.8 °C 37.4 °F /  3 °C 30.32 in /  1026.6 hPa Calm   -999.0 mph /  -1607.7 km/h 88 % 0.00 in /  0 mm 119 W/m2
12:56 40.7 °F /  4.8 °C 37.1 °F /  2.8 °C 30.32 in /  1026.6 hPa Calm   -999.0 mph /  -1607.7 km/h 87 % 0.00 in /  0 mm 122 W/m2
13:01 40.7 °F /  4.8 °C 37.1 °F /  2.8 °C 30.32 in /  1026.6 hPa Calm   -999.0 mph /  -1607.7 km/h 87 % 0.00 in /  0 mm 122 W/m2
13:06 40.7 °F /  4.8 °C 37.1 °F /  2.8 °C 30.32 in /  1026.6 hPa Calm   -999.0 mph /  -1607.7 km/h 87 % 0.00 in /  0 mm 122 W/m2
13:11 40.7 °F /  4.8 °C 37.1 °F /  2.8 °C 30.31 in /  1026.3 hPa Calm   -999.0 mph /  -1607.7 km/h 87 % 0.00 in /  0 mm 135 W/m2
13:16 40.7 °F /  4.8 °C 37.1 °F /  2.8 °C 30.31 in /  1026.3 hPa Calm   -999.0 mph /  -1607.7 km/h 87 % 0.00 in /  0 mm 135 W/m2
13:21 40.7 °F /  4.8 °C 37.1 °F /  2.8 °C 30.31 in /  1026.3 hPa Calm   -999.0 mph /  -1607.7 km/h 87 % 0.00 in /  0 mm 135 W/m2
13:26 41.0 °F /  5 °C 36.8 °F /  2.7 °C 30.31 in /  1026.3 hPa Calm   -999.0 mph /  -1607.7 km/h 85 % 0.00 in /  0 mm 126 W/m2
13:31 41.0 °F /  5 °C 36.8 °F /  2.7 °C 30.31 in /  1026.3 hPa Calm   -999.0 mph /  -1607.7 km/h 85 % 0.00 in /  0 mm 126 W/m2
13:36 41.0 °F /  5 °C 36.8 °F /  2.7 °C 30.31 in /  1026.3 hPa Calm   -999.0 mph /  -1607.7 km/h 85 % 0.00 in /  0 mm 126 W/m2
13:41 41.5 °F /  5.3 °C 36.7 °F /  2.6 °C 30.31 in /  1026.3 hPa Calm   -999.0 mph /  -1607.7 km/h 83 % 0.00 in /  0 mm 112 W/m2
13:46 41.5 °F /  5.3 °C 36.7 °F /  2.6 °C 30.31 in /  1026.3 hPa Calm   -999.0 mph /  -1607.7 km/h 83 % 0.00 in /  0 mm 112 W/m2
13:51 41.5 °F /  5.3 °C 36.7 °F /  2.6 °C 30.31 in /  1026.3 hPa Calm   -999.0 mph /  -1607.7 km/h 83 % 0.00 in /  0 mm 112 W/m2
13:56 41.8 °F /  5.4 °C 37.0 °F /  2.8 °C 30.30 in /  1026 hPa Calm   -999.0 mph /  -1607.7 km/h 83 % 0.00 in /  0 mm 94 W/m2
14:01 41.8 °F /  5.4 °C 37.0 °F /  2.8 °C 30.30 in /  1026 hPa Calm   -999.0 mph /  -1607.7 km/h 83 % 0.00 in /  0 mm 94 W/m2
14:06 41.8 °F /  5.4 °C 37.0 °F /  2.8 °C 30.30 in /  1026 hPa Calm   -999.0 mph /  -1607.7 km/h 83 % 0.00 in /  0 mm 94 W/m2
14:11 42.0 °F /  5.6 °C 37.2 °F /  2.9 °C 30.30 in /  1026 hPa Calm   -999.0 mph /  -1607.7 km/h 83 % 0.00 in /  0 mm 77 W/m2
14:16 42.0 °F /  5.6 °C 37.2 °F /  2.9 °C 30.30 in /  1026 hPa Calm   -999.0 mph /  -1607.7 km/h 83 % 0.00 in /  0 mm 77 W/m2
14:21 42.0 °F /  5.6 °C 37.2 °F /  2.9 °C 30.30 in /  1026 hPa Calm   -999.0 mph /  -1607.7 km/h 83 % 0.00 in /  0 mm 77 W/m2
14:26 42.2 °F /  5.7 °C 37.4 °F /  3 °C 30.30 in /  1026 hPa Calm   -999.0 mph /  -1607.7 km/h 83 % 0.00 in /  0 mm 100 W/m2
14:31 42.2 °F /  5.7 °C 37.4 °F /  3 °C 30.30 in /  1026 hPa Calm   -999.0 mph /  -1607.7 km/h 83 % 0.00 in /  0 mm 100 W/m2
14:36 42.2 °F /  5.7 °C 37.4 °F /  3 °C 30.30 in /  1026 hPa Calm   -999.0 mph /  -1607.7 km/h 83 % 0.00 in /  0 mm 100 W/m2
14:41 42.4 °F /  5.8 °C 37.6 °F /  3.1 °C 30.30 in /  1026 hPa Calm   -999.0 mph /  -1607.7 km/h 83 % 0.00 in /  0 mm 51 W/m2
14:46 42.4 °F /  5.8 °C 37.6 °F /  3.1 °C 30.30 in /  1026 hPa Calm   -999.0 mph /  -1607.7 km/h 83 % 0.00 in /  0 mm 51 W/m2
14:51 42.4 °F /  5.8 °C 37.6 °F /  3.1 °C 30.30 in /  1026 hPa Calm   -999.0 mph /  -1607.7 km/h 83 % 0.00 in /  0 mm 51 W/m2
14:56 42.4 °F /  5.8 °C 37.6 °F /  3.1 °C 30.30 in /  1026 hPa Calm   -999.0 mph /  -1607.7 km/h 83 % 0.00 in /  0 mm 62 W/m2
15:01 42.4 °F /  5.8 °C 37.6 °F /  3.1 °C 30.30 in /  1026 hPa Calm   -999.0 mph /  -1607.7 km/h 83 % 0.00 in /  0 mm 62 W/m2
15:06 42.4 °F /  5.8 °C 37.6 °F /  3.1 °C 30.30 in /  1026 hPa Calm   -999.0 mph /  -1607.7 km/h 83 % 0.00 in /  0 mm 62 W/m2
15:11 42.3 °F /  5.7 °C 37.5 °F /  3.1 °C 30.29 in /  1025.6 hPa Calm   -999.0 mph /  -1607.7 km/h 83 % 0.00 in /  0 mm 29 W/m2
15:16 42.3 °F /  5.7 °C 37.5 °F /  3.1 °C 30.29 in /  1025.6 hPa Calm   -999.0 mph /  -1607.7 km/h 83 % 0.00 in /  0 mm 29 W/m2
15:21 42.3 °F /  5.7 °C 37.5 °F /  3.1 °C 30.29 in /  1025.6 hPa Calm   -999.0 mph /  -1607.7 km/h 83 % 0.00 in /  0 mm 29 W/m2
15:26 42.2 °F /  5.7 °C 38.0 °F /  3.3 °C 30.30 in /  1026 hPa Calm   -999.0 mph /  -1607.7 km/h 85 % 0.00 in /  0 mm 21 W/m2
15:31 42.2 °F /  5.7 °C 38.0 °F /  3.3 °C 30.30 in /  1026 hPa Calm   -999.0 mph /  -1607.7 km/h 85 % 0.00 in /  0 mm 21 W/m2
15:36 42.2 °F /  5.7 °C 38.0 °F /  3.3 °C 30.30 in /  1026 hPa Calm   -999.0 mph /  -1607.7 km/h 85 % 0.00 in /  0 mm 21 W/m2
15:41 42.1 °F /  5.6 °C 38.5 °F /  3.6 °C 30.30 in /  1026 hPa Calm   -999.0 mph /  -1607.7 km/h 87 % 0.00 in /  0 mm 16 W/m2
15:46 42.1 °F /  5.6 °C 38.5 °F /  3.6 °C 30.30 in /  1026 hPa Calm   -999.0 mph /  -1607.7 km/h 87 % 0.00 in /  0 mm 16 W/m2
15:51 42.1 °F /  5.6 °C 38.5 °F /  3.6 °C 30.30 in /  1026 hPa Calm   -999.0 mph /  -1607.7 km/h 87 % 0.00 in /  0 mm 16 W/m2
15:56 41.9 °F /  5.5 °C 38.6 °F /  3.7 °C 30.30 in /  1026 hPa Calm   -999.0 mph /  -1607.7 km/h 88 % 0.00 in /  0 mm 7 W/m2
16:01 41.9 °F /  5.5 °C 38.6 °F /  3.7 °C 30.30 in /  1026 hPa Calm   -999.0 mph /  -1607.7 km/h 88 % 0.00 in /  0 mm 7 W/m2
16:06 41.9 °F /  5.5 °C 38.6 °F /  3.7 °C 30.30 in /  1026 hPa Calm   -999.0 mph /  -1607.7 km/h 88 % 0.00 in /  0 mm 7 W/m2
16:11 41.5 °F /  5.3 °C 38.5 °F /  3.6 °C 30.30 in /  1026 hPa Calm   -999.0 mph /  -1607.7 km/h 89 % 0.00 in /  0 mm 10 W/m2
16:16 41.5 °F /  5.3 °C 38.5 °F /  3.6 °C 30.30 in /  1026 hPa Calm   -999.0 mph /  -1607.7 km/h 89 % 0.00 in /  0 mm 10 W/m2
16:21 41.5 °F /  5.3 °C 38.5 °F /  3.6 °C 30.30 in /  1026 hPa Calm   -999.0 mph /  -1607.7 km/h 89 % 0.00 in /  0 mm 10 W/m2
16:26 41.2 °F /  5.1 °C 38.5 °F /  3.6 °C 30.30 in /  1026 hPa Calm   -999.0 mph /  -1607.7 km/h 90 % 0.00 in /  0 mm 2 W/m2
16:31 41.2 °F /  5.1 °C 38.5 °F /  3.6 °C 30.30 in /  1026 hPa Calm   -999.0 mph /  -1607.7 km/h 90 % 0.00 in /  0 mm 2 W/m2
16:36 41.2 °F /  5.1 °C 38.5 °F /  3.6 °C 30.30 in /  1026 hPa Calm   -999.0 mph /  -1607.7 km/h 90 % 0.00 in /  0 mm 2 W/m2
16:41 40.9 °F /  4.9 °C 38.2 °F /  3.4 °C 30.30 in /  1026 hPa Calm   -999.0 mph /  -1607.7 km/h 90 % 0.00 in /  0 mm 0 W/m2
16:46 40.9 °F /  4.9 °C 38.2 °F /  3.4 °C 30.30 in /  1026 hPa Calm   -999.0 mph /  -1607.7 km/h 90 % 0.00 in /  0 mm 0 W/m2
16:51 40.9 °F /  4.9 °C 38.2 °F /  3.4 °C 30.30 in /  1026 hPa Calm   -999.0 mph /  -1607.7 km/h 90 % 0.00 in /  0 mm 0 W/m2
16:56 40.5 °F /  4.7 °C 38.1 °F /  3.4 °C 30.30 in /  1026 hPa Calm   -999.0 mph /  -1607.7 km/h 91 % 0.00 in /  0 mm 0 W/m2
17:01 40.5 °F /  4.7 °C 38.1 °F /  3.4 °C 30.30 in /  1026 hPa Calm   -999.0 mph /  -1607.7 km/h 91 % 0.00 in /  0 mm 0 W/m2
17:06 40.5 °F /  4.7 °C 38.1 °F /  3.4 °C 30.30 in /  1026 hPa Calm   -999.0 mph /  -1607.7 km/h 91 % 0.00 in /  0 mm 0 W/m2
17:11 40.1 °F /  4.5 °C 38.0 °F /  3.3 °C 30.30 in /  1026 hPa Calm   -999.0 mph /  -1607.7 km/h 92 % 0.00 in /  0 mm 0 W/m2
17:16 40.1 °F /  4.5 °C 38.0 °F /  3.3 °C 30.30 in /  1026 hPa Calm   -999.0 mph /  -1607.7 km/h 92 % 0.00 in /  0 mm 0 W/m2
17:21 40.1 °F /  4.5 °C 38.0 °F /  3.3 °C 30.30 in /  1026 hPa Calm   -999.0 mph /  -1607.7 km/h 92 % 0.00 in /  0 mm 0 W/m2
17:26 39.9 °F /  4.4 °C 37.8 °F /  3.2 °C 30.30 in /  1026 hPa Calm   -999.0 mph /  -1607.7 km/h 92 % 0.00 in /  0 mm 0 W/m2
17:31 39.9 °F /  4.4 °C 37.8 °F /  3.2 °C 30.30 in /  1026 hPa Calm   -999.0 mph /  -1607.7 km/h 92 % 0.00 in /  0 mm 0 W/m2
17:36 39.9 °F /  4.4 °C 37.8 °F /  3.2 °C 30.30 in /  1026 hPa Calm   -999.0 mph /  -1607.7 km/h 92 % 0.00 in /  0 mm 0 W/m2
17:41 39.8 °F /  4.3 °C 37.9 °F /  3.3 °C 30.30 in /  1026 hPa Calm   -999.0 mph /  -1607.7 km/h 93 % 0.00 in /  0 mm 0 W/m2
17:46 39.8 °F /  4.3 °C 37.9 °F /  3.3 °C 30.30 in /  1026 hPa Calm   -999.0 mph /  -1607.7 km/h 93 % 0.00 in /  0 mm 0 W/m2
17:51 39.8 °F /  4.3 °C 37.9 °F /  3.3 °C 30.30 in /  1026 hPa Calm   -999.0 mph /  -1607.7 km/h 93 % 0.00 in /  0 mm 0 W/m2
17:56 39.5 °F /  4.2 °C 37.4 °F /  3 °C 30.29 in /  1025.6 hPa Calm   -999.0 mph /  -1607.7 km/h 92 % 0.00 in /  0 mm 0 W/m2
18:01 39.5 °F /  4.2 °C 37.4 °F /  3 °C 30.29 in /  1025.6 hPa Calm   -999.0 mph /  -1607.7 km/h 92 % 0.00 in /  0 mm 0 W/m2
18:06 39.5 °F /  4.2 °C 37.4 °F /  3 °C 30.29 in /  1025.6 hPa Calm   -999.0 mph /  -1607.7 km/h 92 % 0.00 in /  0 mm 0 W/m2
18:11 38.7 °F /  3.7 °C 36.6 °F /  2.6 °C 30.30 in /  1026 hPa Calm   -999.0 mph /  -1607.7 km/h 92 % 0.00 in /  0 mm 0 W/m2
18:16 38.7 °F /  3.7 °C 36.6 °F /  2.6 °C 30.30 in /  1026 hPa Calm   -999.0 mph /  -1607.7 km/h 92 % 0.00 in /  0 mm 0 W/m2
18:21 38.7 °F /  3.7 °C 36.6 °F /  2.6 °C 30.30 in /  1026 hPa Calm   -999.0 mph /  -1607.7 km/h 92 % 0.00 in /  0 mm 0 W/m2
18:26 37.7 °F /  3.2 °C 35.6 °F /  2 °C 30.29 in /  1025.6 hPa Calm   -999.0 mph /  -1607.7 km/h 92 % 0.00 in /  0 mm 0 W/m2
18:31 37.7 °F /  3.2 °C 35.6 °F /  2 °C 30.29 in /  1025.6 hPa Calm   -999.0 mph /  -1607.7 km/h 92 % 0.00 in /  0 mm 0 W/m2
18:36 37.7 °F /  3.2 °C 35.6 °F /  2 °C 30.29 in /  1025.6 hPa Calm   -999.0 mph /  -1607.7 km/h 92 % 0.00 in /  0 mm 0 W/m2
18:41 36.8 °F /  2.7 °C 35.0 °F /  1.7 °C 30.29 in /  1025.6 hPa Calm   -999.0 mph /  -1607.7 km/h 93 % 0.00 in /  0 mm 0 W/m2
18:46 36.8 °F /  2.7 °C 35.0 °F /  1.7 °C 30.29 in /  1025.6 hPa Calm   -999.0 mph /  -1607.7 km/h 93 % 0.00 in /  0 mm 0 W/m2
18:51 36.8 °F /  2.7 °C 35.0 °F /  1.7 °C 30.29 in /  1025.6 hPa Calm   -999.0 mph /  -1607.7 km/h 93 % 0.00 in /  0 mm 0 W/m2
18:56 36.2 °F /  2.3 °C 34.6 °F /  1.4 °C 30.29 in /  1025.6 hPa Calm   -999.0 mph /  -1607.7 km/h 94 % 0.00 in /  0 mm 0 W/m2
19:01 36.2 °F /  2.3 °C 34.6 °F /  1.4 °C 30.29 in /  1025.6 hPa Calm   -999.0 mph /  -1607.7 km/h 94 % 0.00 in /  0 mm 0 W/m2
19:06 36.2 °F /  2.3 °C 34.6 °F /  1.4 °C 30.29 in /  1025.6 hPa Calm   -999.0 mph /  -1607.7 km/h 94 % 0.00 in /  0 mm 0 W/m2
19:11 35.8 °F /  2.1 °C 34.2 °F /  1.2 °C 30.30 in /  1026 hPa Calm   -999.0 mph /  -1607.7 km/h 94 % 0.00 in /  0 mm 0 W/m2
19:16 35.8 °F /  2.1 °C 34.2 °F /  1.2 °C 30.30 in /  1026 hPa Calm   -999.0 mph /  -1607.7 km/h 94 % 0.00 in /  0 mm 0 W/m2
19:21 35.8 °F /  2.1 °C 34.2 °F /  1.2 °C 30.30 in /  1026 hPa Calm   -999.0 mph /  -1607.7 km/h 94 % 0.00 in /  0 mm 0 W/m2
19:26 35.3 °F /  1.8 °C 33.7 °F /  0.9 °C 30.30 in /  1026 hPa Calm   -999.0 mph /  -1607.7 km/h 94 % 0.00 in /  0 mm 0 W/m2
19:31 35.3 °F /  1.8 °C 33.7 °F /  0.9 °C 30.30 in /  1026 hPa Calm   -999.0 mph /  -1607.7 km/h 94 % 0.00 in /  0 mm 0 W/m2
19:36 35.3 °F /  1.8 °C 33.7 °F /  0.9 °C 30.30 in /  1026 hPa Calm   -999.0 mph /  -1607.7 km/h 94 % 0.00 in /  0 mm 0 W/m2
19:41 35.1 °F /  1.7 °C 33.8 °F /  1 °C 30.29 in /  1025.6 hPa Calm   -999.0 mph /  -1607.7 km/h 95 % 0.00 in /  0 mm 0 W/m2
19:46 35.1 °F /  1.7 °C 33.8 °F /  1 °C 30.29 in /  1025.6 hPa Calm   -999.0 mph /  -1607.7 km/h 95 % 0.00 in /  0 mm 0 W/m2
19:51 35.1 °F /  1.7 °C 33.8 °F /  1 °C 30.29 in /  1025.6 hPa Calm   -999.0 mph /  -1607.7 km/h 95 % 0.00 in /  0 mm 0 W/m2
19:56 34.9 °F /  1.6 °C 33.3 °F /  0.7 °C 30.29 in /  1025.6 hPa Calm   -999.0 mph /  -1607.7 km/h 94 % 0.00 in /  0 mm 0 W/m2
20:01 34.9 °F /  1.6 °C 33.3 °F /  0.7 °C 30.29 in /  1025.6 hPa Calm   -999.0 mph /  -1607.7 km/h 94 % 0.00 in /  0 mm 0 W/m2
20:06 34.9 °F /  1.6 °C 33.3 °F /  0.7 °C 30.29 in /  1025.6 hPa Calm   -999.0 mph /  -1607.7 km/h 94 % 0.00 in /  0 mm 0 W/m2
20:11 34.2 °F /  1.2 °C 32.7 °F /  0.4 °C 30.29 in /  1025.6 hPa Calm   -999.0 mph /  -1607.7 km/h 94 % 0.00 in /  0 mm 0 W/m2
20:16 34.2 °F /  1.2 °C 32.7 °F /  0.4 °C 30.29 in /  1025.6 hPa Calm   -999.0 mph /  -1607.7 km/h 94 % 0.00 in /  0 mm 0 W/m2
20:21 34.2 °F /  1.2 °C 32.7 °F /  0.4 °C 30.29 in /  1025.6 hPa Calm   -999.0 mph /  -1607.7 km/h 94 % 0.00 in /  0 mm 0 W/m2
20:26 33.6 °F /  0.9 °C 32.3 °F /  0.2 °C 30.29 in /  1025.6 hPa Calm   -999.0 mph /  -1607.7 km/h 95 % 0.00 in /  0 mm 0 W/m2
20:31 33.6 °F /  0.9 °C 32.3 °F /  0.2 °C 30.29 in /  1025.6 hPa Calm   -999.0 mph /  -1607.7 km/h 95 % 0.00 in /  0 mm 0 W/m2
20:36 33.6 °F /  0.9 °C 32.3 °F /  0.2 °C 30.29 in /  1025.6 hPa Calm   -999.0 mph /  -1607.7 km/h 95 % 0.00 in /  0 mm 0 W/m2
20:41 33.3 °F /  0.7 °C 32.0 °F /  0 °C 30.30 in /  1026 hPa Calm   -999.0 mph /  -1607.7 km/h 95 % 0.00 in /  0 mm 0 W/m2
20:46 33.3 °F /  0.7 °C 32.0 °F /  0 °C 30.30 in /  1026 hPa Calm   -999.0 mph /  -1607.7 km/h 95 % 0.00 in /  0 mm 0 W/m2
20:51 33.3 °F /  0.7 °C 32.0 °F /  0 °C 30.30 in /  1026 hPa Calm   -999.0 mph /  -1607.7 km/h 95 % 0.00 in /  0 mm 0 W/m2
20:56 33.1 °F /  0.6 °C 31.8 °F /  -0.1 °C 30.30 in /  1026 hPa Calm   -999.0 mph /  -1607.7 km/h 95 % 0.00 in /  0 mm 0 W/m2
21:01 33.1 °F /  0.6 °C 31.8 °F /  -0.1 °C 30.30 in /  1026 hPa Calm   -999.0 mph /  -1607.7 km/h 95 % 0.00 in /  0 mm 0 W/m2
21:06 33.1 °F /  0.6 °C 31.8 °F /  -0.1 °C 30.30 in /  1026 hPa Calm   -999.0 mph /  -1607.7 km/h 95 % 0.00 in /  0 mm 0 W/m2
21:11 32.9 °F /  0.5 °C 31.6 °F /  -0.2 °C 30.29 in /  1025.6 hPa Calm   -999.0 mph /  -1607.7 km/h 95 % 0.00 in /  0 mm 0 W/m2
21:16 32.9 °F /  0.5 °C 31.6 °F /  -0.2 °C 30.29 in /  1025.6 hPa Calm   -999.0 mph /  -1607.7 km/h 95 % 0.00 in /  0 mm 0 W/m2
21:21 32.9 °F /  0.5 °C 31.6 °F /  -0.2 °C 30.29 in /  1025.6 hPa Calm   -999.0 mph /  -1607.7 km/h 95 % 0.00 in /  0 mm 0 W/m2
21:26 32.6 °F /  0.3 °C 31.6 °F /  -0.2 °C 30.29 in /  1025.6 hPa Calm   -999.0 mph /  -1607.7 km/h 96 % 0.00 in /  0 mm 0 W/m2
21:31 32.6 °F /  0.3 °C 31.6 °F /  -0.2 °C 30.29 in /  1025.6 hPa Calm   -999.0 mph /  -1607.7 km/h 96 % 0.00 in /  0 mm 0 W/m2
21:36 32.6 °F /  0.3 °C 31.6 °F /  -0.2 °C 30.29 in /  1025.6 hPa Calm   -999.0 mph /  -1607.7 km/h 96 % 0.00 in /  0 mm 0 W/m2
21:41 32.3 °F /  0.2 °C 31.0 °F /  -0.6 °C 30.29 in /  1025.6 hPa Calm   -999.0 mph /  -1607.7 km/h 95 % 0.00 in /  0 mm 0 W/m2
21:46 32.3 °F /  0.2 °C 31.0 °F /  -0.6 °C 30.29 in /  1025.6 hPa Calm   -999.0 mph /  -1607.7 km/h 95 % 0.00 in /  0 mm 0 W/m2
21:51 32.3 °F /  0.2 °C 31.0 °F /  -0.6 °C 30.29 in /  1025.6 hPa Calm   -999.0 mph /  -1607.7 km/h 95 % 0.00 in /  0 mm 0 W/m2
21:56 32.1 °F /  0.1 °C 31.1 °F /  -0.5 °C 30.29 in /  1025.6 hPa Calm   -999.0 mph /  -1607.7 km/h 96 % 0.00 in /  0 mm 0 W/m2
22:01 32.1 °F /  0.1 °C 31.1 °F /  -0.5 °C 30.29 in /  1025.6 hPa Calm   -999.0 mph /  -1607.7 km/h 96 % 0.00 in /  0 mm 0 W/m2
22:06 32.1 °F /  0.1 °C 31.1 °F /  -0.5 °C 30.29 in /  1025.6 hPa Calm   -999.0 mph /  -1607.7 km/h 96 % 0.00 in /  0 mm 0 W/m2
22:11 32.1 °F /  0.1 °C 31.1 °F /  -0.5 °C 30.29 in /  1025.6 hPa Calm   -999.0 mph /  -1607.7 km/h 96 % 0.00 in /  0 mm 0 W/m2
22:16 32.1 °F /  0.1 °C 31.1 °F /  -0.5 °C 30.29 in /  1025.6 hPa Calm   -999.0 mph /  -1607.7 km/h 96 % 0.00 in /  0 mm 0 W/m2
22:21 32.1 °F /  0.1 °C 31.1 °F /  -0.5 °C 30.29 in /  1025.6 hPa Calm   -999.0 mph /  -1607.7 km/h 96 % 0.00 in /  0 mm 0 W/m2
22:26 31.9 °F /  -0.1 °C 30.9 °F /  -0.6 °C 30.29 in /  1025.6 hPa Calm   -999.0 mph /  -1607.7 km/h 96 % 0.00 in /  0 mm 0 W/m2
22:31 31.9 °F /  -0.1 °C 30.9 °F /  -0.6 °C 30.29 in /  1025.6 hPa Calm   -999.0 mph /  -1607.7 km/h 96 % 0.00 in /  0 mm 0 W/m2
22:36 31.9 °F /  -0.1 °C 30.9 °F /  -0.6 °C 30.29 in /  1025.6 hPa Calm   -999.0 mph /  -1607.7 km/h 96 % 0.00 in /  0 mm 0 W/m2
22:41 32.2 °F /  0.1 °C 31.2 °F /  -0.4 °C 30.29 in /  1025.6 hPa Calm   -999.0 mph /  -1607.7 km/h 96 % 0.00 in /  0 mm 0 W/m2
22:46 32.2 °F /  0.1 °C 31.2 °F /  -0.4 °C 30.29 in /  1025.6 hPa Calm   -999.0 mph /  -1607.7 km/h 96 % 0.00 in /  0 mm 0 W/m2
22:51 32.2 °F /  0.1 °C 31.2 °F /  -0.4 °C 30.29 in /  1025.6 hPa Calm   -999.0 mph /  -1607.7 km/h 96 % 0.00 in /  0 mm 0 W/m2
22:56 32.2 °F /  0.1 °C 31.2 °F /  -0.4 °C 30.28 in /  1025.3 hPa Calm   -999.0 mph /  -1607.7 km/h 96 % 0.00 in /  0 mm 0 W/m2
23:01 32.2 °F /  0.1 °C 31.2 °F /  -0.4 °C 30.28 in /  1025.3 hPa Calm   -999.0 mph /  -1607.7 km/h 96 % 0.00 in /  0 mm 0 W/m2
23:06 32.2 °F /  0.1 °C 31.2 °F /  -0.4 °C 30.28 in /  1025.3 hPa Calm   -999.0 mph /  -1607.7 km/h 96 % 0.00 in /  0 mm 0 W/m2
23:11 32.2 °F /  0.1 °C 31.4 °F /  -0.3 °C 30.28 in /  1025.3 hPa Calm   -999.0 mph /  -1607.7 km/h 97 % 0.00 in /  0 mm 0 W/m2
23:16 32.2 °F /  0.1 °C 31.4 °F /  -0.3 °C 30.28 in /  1025.3 hPa Calm   -999.0 mph /  -1607.7 km/h 97 % 0.00 in /  0 mm 0 W/m2
23:21 32.2 °F /  0.1 °C 31.4 °F /  -0.3 °C 30.28 in /  1025.3 hPa Calm   -999.0 mph /  -1607.7 km/h 97 % 0.00 in /  0 mm 0 W/m2
23:26 32.5 °F /  0.3 °C 31.7 °F /  -0.2 °C 30.28 in /  1025.3 hPa Calm   -999.0 mph /  -1607.7 km/h 97 % 0.00 in /  0 mm 0 W/m2
23:31 32.5 °F /  0.3 °C 31.7 °F /  -0.2 °C 30.28 in /  1025.3 hPa Calm   -999.0 mph /  -1607.7 km/h 97 % 0.00 in /  0 mm 0 W/m2
23:36 32.5 °F /  0.3 °C 31.7 °F /  -0.2 °C 30.28 in /  1025.3 hPa Calm   -999.0 mph /  -1607.7 km/h 97 % 0.00 in /  0 mm 0 W/m2
23:41 32.0 °F /  0 °C 31.0 °F /  -0.6 °C 30.28 in /  1025.3 hPa Calm   -999.0 mph /  -1607.7 km/h 96 % 0.00 in /  0 mm 0 W/m2
23:46 32.0 °F /  0 °C 31.0 °F /  -0.6 °C 30.28 in /  1025.3 hPa Calm   -999.0 mph /  -1607.7 km/h 96 % 0.00 in /  0 mm 0 W/m2
23:51 32.0 °F /  0 °C 31.0 °F /  -0.6 °C 30.28 in /  1025.3 hPa Calm   -999.0 mph /  -1607.7 km/h 96 % 0.00 in /  0 mm 0 W/m2
23:56 31.1 °F /  -0.5 °C 30.1 °F /  -1.1 °C 30.27 in /  1024.9 hPa Calm   -999.0 mph /  -1607.7 km/h 96 % 0.00 in /  0 mm 0 W/m2
Delerius-Weather
Compliments of Weather Underground - 2.25 mb

Data updates at regular intervals.